Terminal Aerodrome Forecast
Issued by NWS

Home | Current Version | Previous Version | Text Only | Print | Product List | Glossary On
Versions: 1 2 3 4 5 6 7 8 9 10 11 12 13 14 15 16 17 18 19 20 21
000
FTUS41 KBOX 281121
TAFBAF
TAF
KBAF 281121Z 2812/2912 36007KT P6SM VCSH BKN015
     FM281400 02008KT P6SM BKN015
     FM281800 04007KT P6SM -DZ BKN025
     FM290000 03009KT P6SM -DZ BKN015=

USA.gov is the U.S. government's official web portal to all federal, state and local government web resources and services.